Udell, Iowa
Current Conditions -  °F | °C
As of 3:30 PM on Tuesday 25 Nov 2014 (Local Time) from KTVK Reporting Station
Clear Clear  
Wind Chill: 32°   Ceiling: Unl
Heat Index: 36°   Visibility: 10mi
Dew Point: 14°   Wind: 5mph
Humidity: 41%   Direction: 200°SSW
Pressure: 30.11"   Gusts: NA
Location:  40.78°N, 92.74°W
Report Text: KTVK 252130Z AUTO 20004KT 10SM CLR 02/M10 A3011 RMK AO2
Loading
Personal Weather Stations






























Interactive Weather Map New forecast layout! Learn more

10-Day Weather Forecast

Advertisements
Track Severe Weather on mobile